x

Folly Island, Sc (fbis1) Weather Station

10:00am - Mon 26th Jan 2015 All times are EST. -5 hours from GMT.

  • Wind
    9mph, 14mph gusts
  • Air Temp 53°f
  • Sea Pressure 1006.1mb
  • Folly Island, Sc
  • Folly Island, Sc

More Historic Weather Station data

Upgrade to MSW Pro to gain access to the past 30 days of data for over 8000 Wavebouys and Weather Stations around the globe.

Join Pro

Comparision Forecast

View Surf forecast
   
Mon 01/26 10:00am 9 14 mph 1006.1mb 53f
9:00am 10 14 mph 1006.1mb 52f
8:00am 8 13 mph 1006.5mb 49f
7:00am 7 10 mph 1006.4mb 51f
6:00am 9 14 mph 1006.5mb 53f
5:00am 11 16 mph 1007.1mb 53f
4:00am 10 13 mph 1007.5mb 54f
3:00am 14 18 mph 1008.6mb 54f
2:00am 13 18 mph 1009.1mb 54f
1:00am 18 22 mph 1009.6mb 54f
12:00am 16 20 mph 1010.8mb 55f
Sun 01/25 11:00pm 15 18 mph 1011.7mb 55f
10:00pm 13 16 mph 1012.1mb 54f
9:00pm 15 18 mph 1011.9mb 54f
8:00pm 16 17 mph 1012.2mb 54f
7:00pm 15 17 mph 1012.3mb 53f
6:00pm 16 20 mph 1012.1mb 53f
5:00pm 16 18 mph 1012.6mb 53f
4:00pm 10 14 mph 1013.2mb 52f
3:00pm 11 14 mph 1013.5mb 51f
2:00pm 9
mph
1014mb 50f
1:00pm 5 6 mph 1015.2mb 50f
12:00pm 3 5 mph 1016.3mb 50f
11:00am 3 5 mph 1016.8mb 51f
10:00am 5 7 mph 1016.7mb 48f
9:00am 6 8 mph 1016.5mb 45f
8:00am 6 9 mph 1017mb 40f
7:00am 6 7 mph 1016.6mb 38f
6:00am 3 7 mph 1015.3mb 39f
5:00am 8 13 mph 1014.7mb 41f
4:00am 8 11 mph 1014.2mb 42f
3:00am 6 10 mph 1014.6mb 42f
2:00am 8 11 mph 1013.9mb 44f
1:00am 8 11 mph 1013.7mb 46f
12:00am 7 9 mph 1013.9mb 47f
Sat 01/24 11:00pm 8 13 mph 1013.7mb 47f
10:00pm 8 13 mph 1013.3mb 48f
9:00pm 8 11 mph 1012.8mb 48f
8:00pm 7 8 mph 1012.1mb 49f
7:00pm 6 8 mph 1011.1mb 50f
6:00pm 6 8 mph 1009.8mb 52f
5:00pm 7 9 mph 1008.9mb 55f
4:00pm 9 14 mph 1008.1mb 55f
3:00pm 10 21 mph 1007.4mb 55f
2:00pm 13 21 mph 1007.1mb 54f
1:00pm 11 18 mph 1007.1mb 50f
12:00pm 15 21 mph 1006.7mb 52f
11:00am 15 22 mph 1006.4mb 51f
10:00am 14 23 mph 1006.2mb 51f
9:00am 10 15 mph 1005.3mb 52f
8:00am 11 20 mph 1004.6mb 55f
7:00am 10 14 mph 1003mb 61f
6:00am 17 23 mph 1002.2mb 61f
5:00am 32 38 mph 1001.5mb 61f
4:00am 23 26 mph 1002.7mb 60f
3:00am 23 25 mph 1004.1mb 60f
2:00am 13 18 mph 1005mb 61f
1:00am 13 18 mph 1006mb 62f
12:00am 13 16 mph 1007.3mb 62f
Fri 01/23 11:00pm 24 28 mph 1008mb 63f
10:00pm 28 31 mph 1008.3mb 63f
9:00pm 29 31 mph 1009.2mb 64f
8:00pm 17 18 mph 1010.3mb 62f
7:00pm 22 25 mph 1011.3mb 62f
6:00pm 23 25 mph 1012mb 62f
5:00pm 14
mph
1012.9mb 60f
4:00pm 6 7 mph 1014mb 59f
3:00pm 13 14 mph 1014.9mb 56f
2:00pm 10 11 mph 1016.3mb 55f
1:00pm 14 16 mph 1017.6mb 55f
12:00pm 15 17 mph 1019.1mb 55f
11:00am 16 20 mph 1020.4mb 55f
10:00am 16 20 mph 1021.5mb 54f
9:00am 23 25 mph 1021.3mb 55f
8:00am 24 26 mph 1021.4mb 55f
7:00am 22 25 mph 1021.7mb 54f
6:00am 20 24 mph 1022.3mb 54f
5:00am 21 22 mph 1022.4mb 55f
4:00am 15 17 mph 1023.3mb 54f
3:00am 17 21 mph 1023.2mb 54f
2:00am 13 17 mph 1023.1mb 54f
1:00am 13 15 mph 1023.9mb 55f
12:00am 15 17 mph 1024.2mb 55f
Thu 01/22 11:00pm 14 16 mph 1024.7mb 55f
10:00pm 15 16 mph 1024.5mb 55f
9:00pm 14 18 mph 1024.9mb 55f
8:00pm 16 18 mph 1024.8mb 55f
7:00pm 16 18 mph 1024.8mb 55f
6:00pm 16 18 mph 1024.7mb 55f
5:00pm 16 20 mph 1024mb 55f